www.nordhorn-wetter.com
Wetterdaten: aktuell Donnerstag, 03.09.2026 23:27
Datum Zeit Temp. A. BodenT -5cm Temp +10cm Extra Temp Feuchte A. BlattFeuchte Bod.Feu -5cm Luftdruck Regen Wind Richtung Richtung Sonnenschein ET UV Solar Taupunkt Windböen Empfang
03.09.2026 23:27 18,7 °C 0,0 °C 19,4 °C 18,4 °C 87 % 0 lf 25 cb 1014,4 hPa 0,0 mm 5,2 km/h (1 Bft) SW 232 ° 0 min 0,000 mm 0,0 UV-I 0 W/m² 16,5 °C 8,0 km/h (2 Bft) 100,00 %
03.09.2026 22:27 18,6 °C 0,0 °C 19,4 °C 18,4 °C 84 % 0 lf 25 cb 1014,8 hPa 0,0 mm 7,8 km/h (2 Bft) SW 226 ° 0 min 0,000 mm 0,0 UV-I 0 W/m² 15,8 °C 11,3 km/h (2 Bft) 100,00 %
03.09.2026 21:27 19,1 °C 0,0 °C 19,4 °C 18,4 °C 82 % 0 lf 25 cb 1014,8 hPa 0,0 mm 6,3 km/h (2 Bft) W-SW 243 ° 0 min 0,000 mm 0,0 UV-I 0 W/m² 16,0 °C 12,9 km/h (3 Bft) 95,65 %
03.09.2026 20:27 20,2 °C 0,0 °C 19,4 °C 18,4 °C 79 % 0 lf 25 cb 1014,6 hPa 0,0 mm 4,4 km/h (1 Bft) W-NW 291 ° 0 min 0,000 mm 0,0 UV-I 0 W/m² 16,4 °C 6,4 km/h (2 Bft) 95,83 %
03.09.2026 19:27 20,6 °C 0,0 °C 19,4 °C 18,4 °C 80 % 0 lf 25 cb 1014,5 hPa 0,0 mm 8,4 km/h (2 Bft) W 259 ° 7 min 0,000 mm 0,0 UV-I 53 W/m² 17,0 °C 12,9 km/h (3 Bft) 79,17 %
03.09.2026 18:27 21,4 °C 0,0 °C 19,4 °C 18,4 °C 78 % 12 lf 25 cb 1014,6 hPa 0,0 mm 13,9 km/h (3 Bft) W-NW 284 ° 16 min 0,000 mm 0,0 UV-I 151 W/m² 17,4 °C 17,7 km/h (3 Bft) 95,65 %
03.09.2026 17:27 21,9 °C 0,0 °C 21,1 °C 19,0 °C 74 % 0 lf 33 cb 1014,3 hPa 0,0 mm 14,3 km/h (3 Bft) W 262 ° 26 min 0,000 mm 1,2 UV-I 162 W/m² 17,0 °C 20,9 km/h (4 Bft) 95,83 %
03.09.2026 16:27 21,9 °C 0,0 °C 21,1 °C 18,4 °C 76 % 0 lf 33 cb 1014,3 hPa 0,0 mm 7,6 km/h (2 Bft) W 262 ° 8 min 0,000 mm 1,2 UV-I 159 W/m² 17,5 °C 12,9 km/h (3 Bft) 91,30 %
03.09.2026 15:27 24,0 °C 0,0 °C 20,6 °C 18,4 °C 73 % 0 lf 32 cb 1014,0 hPa 0,0 mm 16,0 km/h (3 Bft) W-NW 298 ° 38 min 0,000 mm 4,0 UV-I 793 W/m² 18,9 °C 24,1 km/h (4 Bft) 95,65 %
03.09.2026 14:27 21,8 °C 0,0 °C 20,0 °C 17,9 °C 80 % 0 lf 32 cb 1013,7 hPa 0,0 mm 8,4 km/h (2 Bft) W-NW 284 ° 14 min 0,000 mm 3,5 UV-I 409 W/m² 18,2 °C 22,5 km/h (4 Bft) 100,00 %
03.09.2026 13:27 21,7 °C 0,0 °C 19,4 °C 17,3 °C 82 % 0 lf 32 cb 1013,6 hPa 0,0 mm 14,0 km/h (3 Bft) SW 221 ° 24 min 0,000 mm 3,1 UV-I 395 W/m² 18,5 °C 20,9 km/h (4 Bft) 86,96 %
03.09.2026 12:27 19,1 °C 0,0 °C 18,3 °C 17,3 °C 89 % 11 lf 32 cb 1014,1 hPa 0,0 mm 13,5 km/h (3 Bft) SW 227 ° 0 min 0,000 mm 0,7 UV-I 93 W/m² 17,2 °C 24,1 km/h (4 Bft) 100,00 %
03.09.2026 11:27 19,1 °C 0,0 °C 18,3 °C 17,3 °C 86 % 0 lf 32 cb 1013,7 hPa 0,0 mm 12,1 km/h (2 Bft) S-SW 196 ° 0 min 0,000 mm 0,6 UV-I 74 W/m² 16,7 °C 17,7 km/h (3 Bft) 100,00 %
03.09.2026 10:27 18,3 °C 0,0 °C 18,3 °C 17,3 °C 85 % 0 lf 32 cb 1013,6 hPa 0,0 mm 8,9 km/h (2 Bft) SW 224 ° 0 min 0,000 mm 1,0 UV-I 134 W/m² 15,7 °C 14,5 km/h (3 Bft) 95,65 %
03.09.2026 09:27 18,1 °C 0,0 °C 18,3 °C 17,3 °C 83 % 0 lf 32 cb 1013,7 hPa 0,0 mm 7,6 km/h (2 Bft) S 190 ° 0 min 0,000 mm 0,0 UV-I 83 W/m² 15,2 °C 11,3 km/h (2 Bft) 100,00 %
03.09.2026 08:27 17,5 °C 0,0 °C 20,0 °C 18,4 °C 85 % 0 lf 33 cb 1014,1 hPa 0,0 mm 9,7 km/h (2 Bft) W-SW 249 ° 0 min 0,000 mm 0,0 UV-I 33 W/m² 14,9 °C 14,5 km/h (3 Bft) 86,96 %
03.09.2026 07:27 17,2 °C 0,0 °C 20,0 °C 18,4 °C 86 % 0 lf 33 cb 1014,2 hPa 0,0 mm 7,6 km/h (2 Bft) S-SW 203 ° 0 min 0,000 mm 0,0 UV-I 17 W/m² 14,8 °C 14,5 km/h (3 Bft) 91,67 %
03.09.2026 06:27 17,1 °C 0,0 °C 20,0 °C 18,4 °C 84 % 0 lf 33 cb 1014,3 hPa 0,0 mm 8,1 km/h (2 Bft) S-SW 209 ° 0 min 0,000 mm 0,0 UV-I 0 W/m² 14,4 °C 16,1 km/h (3 Bft) 100,00 %
03.09.2026 05:27 16,6 °C 0,0 °C 20,0 °C 18,4 °C 86 % 0 lf 33 cb 1014,9 hPa 0,0 mm 7,0 km/h (2 Bft) S-SO 158 ° 0 min 0,000 mm 0,0 UV-I 0 W/m² 14,2 °C 9,7 km/h (2 Bft) 100,00 %
03.09.2026 04:27 16,8 °C 0,0 °C 20,0 °C 18,4 °C 86 % 0 lf 33 cb 1015,3 hPa 0,0 mm 7,2 km/h (2 Bft) S 184 ° 0 min 0,000 mm 0,0 UV-I 0 W/m² 14,4 °C 11,3 km/h (2 Bft) 95,83 %
03.09.2026 03:27 17,1 °C 0,0 °C 20,0 °C 18,4 °C 83 % 0 lf 33 cb 1015,9 hPa 0,0 mm 6,5 km/h (2 Bft) S-SW 213 ° 0 min 0,000 mm 0,0 UV-I 0 W/m² 14,2 °C 12,9 km/h (3 Bft) 95,65 %
03.09.2026 02:27 16,6 °C 0,0 °C 20,0 °C 18,4 °C 88 % 0 lf 33 cb 1016,5 hPa 0,0 mm 7,6 km/h (2 Bft) SW 216 ° 0 min 0,000 mm 0,0 UV-I 0 W/m² 14,6 °C 12,9 km/h (3 Bft) 95,83 %
03.09.2026 01:27 16,2 °C 0,0 °C 20,0 °C 18,4 °C 91 % 0 lf 33 cb 1017,1 hPa 0,0 mm 2,0 km/h (1 Bft) S-SW 200 ° 0 min 0,000 mm 0,0 UV-I 0 W/m² 14,7 °C 6,4 km/h (2 Bft) 95,83 %
03.09.2026 00:27 16,6 °C 0,0 °C 20,0 °C 18,4 °C 88 % 0 lf 33 cb 1017,6 hPa 0,0 mm 4,8 km/h (1 Bft) S-SW 192 ° 0 min 2,286 mm 0,0 UV-I 0 W/m² 14,6 °C 6,4 km/h (2 Bft) 100,00 %
03.09.2026 00:00 16,8 °C 0,0 °C 20,0 °C 18,4 °C 87 % 0 lf 33 cb 1017,8 hPa 0,0 mm 3,9 km/h (1 Bft) S 181 ° 0 min 0,000 mm 0,0 UV-I 0 W/m² 14,6 °C 6,4 km/h (2 Bft) 92,31 %
_ Min-Zeit 01:47 23:27 12:46 13:53 15:33 23:27 17:59 10:29 - 01:55 - - - - - - 05:10 01:55 14:17
Minimum _ 16,2 °C 0,0 °C 18,3 °C 17,3 °C 70 % 0 lf 20 cb 1013,4 hPa - 0,0 km/h (0 Bft) - - - - - - 14,0 °C 0,0 km/h (0 Bft) 78,26 %
_ Max-Zeit 15:31 23:27 17:47 17:56 12:47 13:59 17:50 00:15 23:27 17:24 - - 18:45 00:02 12:54 13:02 14:07 14:57 23:27
Maximum _ 24,2 °C 0,0 °C 21,1 °C 19,0 °C 91 % 15 lf 33 cb 1017,8 hPa 0,0 mm 20,4 km/h
SW (4 Bft)
- - 1 min 2,286 mm 4,8 UV-I 856 W/m² 19,0 °C 33,8 km/h
W-NW (5 Bft)
100,00 %
Durchschnitt _ 19,0 °C 0,0 °C 19,7 °C 18,2 °C 83 % 0 lf 31 cb 1014,7 hPa #0,0 mm 8,5 km/h (2 Bft) SW - #2:13 h #2,286 mm 1,6 UV-I 184 W/m² 16,0 °C 14,0 km/h (3 Bft) 96,58 %
© 2006-2026 Nordhorn-Wetter.com